OMDBVOTV

Guest
Details From OMDB - Dubai Intl
To VOTV - Thiruvananthapuram Intl
Flight Number -
Tags Generated
Created
Modified
Stats Distance 1,592 nm / 2,949 km
Max Altitude 0 ft / 0 m
Waypoints 3
Social Downloads 1
Likes 0
Share VATSIM

Download

Looking for another format? Having issues loading an existing format? Contact us
Advertisement - Login to hide

Notes

Generated

Route

OMDB GIDAN VOTV

ID Type Via Altitude Latitude Longitude Leg Dist Tot Dist Heading (true) Name
O OMDB APT - 0 ft / 0 m 25.26213˚ 55.34757˚ - 0 nm - -
GIDAN FIX - 0 ft / 0 m 23.01778˚ 58.37556˚ 213 nm 213 nm 128° / 130° -
O VOTV APT - 0 ft / 0 m 8.49315˚ 76.90936˚ 1378 nm 1592 nm 126° / 131° -

Altitude Profile

Advertisement - Login to hide

Weather


0- 5 10 15 20 25 30 35+ Temperature / ° C

Clouds and Precipitation
Forecast for 2017-12-14 18:00 UTC. Updated 2 hours ago

Ground ~20,000 ft ~40,000 ft Winds

OMDB

Details ICAO OMDB (DXB)
Name DUBAI INTL
Region United Arab Emirates
Timezone Asia/Dubai (UTC+4.0)
Stats Elevation 62 ft / 19 m (AMSL)
Location 25.254912° 55.364260°
Runways 2
Magnetic Variation 2.047° E

METAR

OMDB 141700Z 06006KT CAVOK 23/10 Q1017 NOSIG

Decode

TAF

TAF OMDB 141056Z 1412/1518 35010KT 8000 SCT040 BECMG 1414/1416 14012KT PROB40 1510/1514 36010KT

Decode

Departure Runways

ID Width Length Bearing (true) Bearing (mag) Surface Threshold Offset Overrun Length
12L 197 ft / 60 m 13,124 ft / 4,000 m 121.49° 119.44° Asphalt 1,312 ft / 400 m 395 ft / 120 m
12R 151 ft / 46 m 13,139 ft / 4,005 m 121.48° 119.43° Asphalt 394 ft / 120 m 197 ft / 60 m
30L 151 ft / 46 m 13,139 ft / 4,005 m 301.50° 299.45° Asphalt 2,953 ft / 900 m 197 ft / 60 m
30R 197 ft / 60 m 13,124 ft / 4,000 m 301.51° 299.46° Asphalt 0 ft / 0 m 395 ft / 120 m

VOTV

Details ICAO VOTV (TRV)
Name THIRUVANANTHAPURAM INTL
Region India
Timezone Asia/Kolkata (UTC+5.5)
Stats Elevation 15 ft / 5 m (AMSL)
Location 8.482121° 76.920115°
Runways 1
Magnetic Variation 1.933° W

METAR

VOTV 141700Z 14003KT 2500 HZ SCT015 SCT090 27/25 Q1012 NOSIG

Decode

TAF

TAF VOTV 141100Z 1412/1518 32005KT 4000 HZ SCT015 SCT080 BECMG 1416/1417 00000KT 3000 HZ TEMPO 1422/1502 2000 BR SCT012 SCT090 BECMG 1502/1503 22005KT 4000 HZ FEW015 BECMG 1505/1506 23010KT 5000 HZ TEMPO 1510/1514 3000 TSRA RA SCT012 FEW025CB BKN080 BECMG 1514/1515 00000KT 4000 HZ FEW015 SCT080

Decode

Destination Runways

ID Width Length Bearing (true) Bearing (mag) Surface Threshold Offset Overrun Length
14 150 ft / 46 m 11,180 ft / 3,408 m 136.04° 137.97° Asphalt 1,332 ft / 406 m 180 ft / 55 m
32 150 ft / 46 m 11,180 ft / 3,408 m 316.04° 317.97° Asphalt 522 ft / 159 m 0 ft / 0 m

Approach Navaids

Runway Type Ident Frequency Range Bearing (true) Bearing (mag) Slope Elevation
32 Localiser ITDM 109.90 MHz 18 nm / 33 km 314.69° 316.62° - 15 ft / 5 m (AMSL)
32 Glidescope ITDM 109.90 MHz 10 nm / 19 km 316.04° 317.97° 3.00° 15 ft / 5 m (AMSL)
32 DME ITDM 109.90 MHz 18 nm / 33 km - - - 15 ft / 5 m (AMSL)

Popular Alternatives